Wetterdaten: Sonntag, 14.06.2015
Datum Zeit Temp. A. Feuchte A. Luftdruck Regen Wind Richtung Richtung Sonnenschein ET UV Solar Taupunkt Windchill Windben Empfang
14.06.2015 00:00 18,1 C 81 % 1010,0 hPa 0,0 l/m 0,0 km/h (0 Bft) SW 220 0 min 0,000 mm 0,0 UV-I 0 W/m 14,8 C 18,1 C 0,0 km/h (0 Bft) 0,00 %
14.06.2015 01:00 17,4 C 87 % 1008,9 hPa 0,0 l/m 1,4 km/h (1 Bft) O-SO 110 0 min 0,000 mm 0,0 UV-I 0 W/m 15,2 C 17,4 C 4,0 km/h (1 Bft) 0,00 %
14.06.2015 02:00 16,7 C 92 % 1010,2 hPa 0,0 l/m 0,0 km/h (0 Bft) O-SO 120 0 min 0,000 mm 0,0 UV-I 0 W/m 15,4 C 16,7 C 0,0 km/h (0 Bft) 0,00 %
14.06.2015 03:00 16,9 C 93 % 1009,0 hPa 0,0 l/m 0,0 km/h (0 Bft) S 180 0 min 0,000 mm 0,0 UV-I 0 W/m 15,8 C 16,9 C 0,0 km/h (0 Bft) 0,00 %
14.06.2015 04:00 16,0 C 93 % 1009,1 hPa 0,0 l/m 0,0 km/h (0 Bft) SW 230 0 min 0,000 mm 0,0 UV-I 0 W/m 14,9 C 16,0 C 0,0 km/h (0 Bft) 0,00 %
14.06.2015 05:00 15,4 C 96 % 1009,2 hPa 0,0 l/m 0,0 km/h (0 Bft) SW 230 0 min 0,000 mm 0,0 UV-I 3 W/m 14,8 C 15,4 C 0,0 km/h (0 Bft) 0,00 %
14.06.2015 06:00 16,5 C 92 % 1009,1 hPa 0,0 l/m 0,0 km/h (0 Bft) SW 230 60 min 0,000 mm 0,0 UV-I 146 W/m 15,2 C 16,5 C 0,0 km/h (0 Bft) 0,00 %
14.06.2015 07:00 20,1 C 71 % 1008,9 hPa 0,0 l/m 0,0 km/h (0 Bft) W-SW 250 60 min 0,000 mm 1,0 UV-I 345 W/m 14,7 C 20,1 C 0,0 km/h (0 Bft) 0,00 %
14.06.2015 08:00 22,7 C 64 % 1008,6 hPa 0,0 l/m 0,0 km/h (0 Bft) S 180 60 min 0,000 mm 1,0 UV-I 454 W/m 15,5 C 22,7 C 0,0 km/h (0 Bft) 0,00 %
14.06.2015 09:00 23,5 C 60 % 1007,7 hPa 0,0 l/m 0,0 km/h (0 Bft) O-SO 120 60 min 0,000 mm 2,0 UV-I 579 W/m 15,3 C 23,5 C 0,0 km/h (0 Bft) 0,00 %
14.06.2015 10:00 25,0 C 59 % 1007,2 hPa 0,0 l/m 0,0 km/h (0 Bft) SO 130 60 min 0,000 mm 3,0 UV-I 635 W/m 16,4 C 25,0 C 0,0 km/h (0 Bft) 0,00 %
14.06.2015 11:00 25,3 C 54 % 1007,6 hPa 0,0 l/m 4,3 km/h (1 Bft) O 90 60 min 0,000 mm 4,0 UV-I 720 W/m 15,3 C 25,3 C 7,9 km/h (2 Bft) 0,00 %
14.06.2015 12:00 25,2 C 51 % 1007,6 hPa 0,0 l/m 2,9 km/h (1 Bft) N 359 60 min 0,000 mm 4,0 UV-I 723 W/m 14,3 C 25,2 C 7,9 km/h (2 Bft) 0,00 %
14.06.2015 13:00 25,8 C 51 % 1006,8 hPa 0,0 l/m 1,4 km/h (1 Bft) O-SO 120 0 min 0,000 mm 3,0 UV-I 464 W/m 14,9 C 25,8 C 4,0 km/h (1 Bft) 0,00 %
14.06.2015 14:00 27,2 C 48 % 1005,9 hPa 0,0 l/m 0,0 km/h (0 Bft) SO 130 60 min 0,000 mm 3,0 UV-I 647 W/m 15,2 C 27,2 C 0,0 km/h (0 Bft) 0,00 %
14.06.2015 15:00 28,1 C 49 % 1005,4 hPa 0,0 l/m 0,0 km/h (0 Bft) O 90 60 min 0,000 mm 4,0 UV-I 768 W/m 16,4 C 28,1 C 0,0 km/h (0 Bft) 0,00 %
14.06.2015 16:00 27,3 C 47 % 1004,5 hPa 0,0 l/m 0,0 km/h (0 Bft) S 180 60 min 0,000 mm 2,0 UV-I 520 W/m 15,0 C 27,3 C 0,0 km/h (0 Bft) 0,00 %
14.06.2015 17:00 27,0 C 36 % 1003,8 hPa 0,0 l/m 0,3 km/h (0 Bft) O-SO 120 60 min 0,000 mm 2,0 UV-I 806 W/m 10,6 C 27,0 C 4,0 km/h (1 Bft) 0,00 %
14.06.2015 18:00 26,8 C 34 % 1002,8 hPa 0,0 l/m 0,0 km/h (0 Bft) S-SO 150 60 min 0,000 mm 1,0 UV-I 810 W/m 9,6 C 26,8 C 0,0 km/h (0 Bft) 0,00 %
14.06.2015 19:00 26,1 C 34 % 1003,3 hPa 0,0 l/m 0,0 km/h (0 Bft) O 90 60 min 0,000 mm 1,0 UV-I 247 W/m 9,0 C 26,1 C 0,0 km/h (0 Bft) 0,00 %
14.06.2015 20:00 24,9 C 39 % 1003,0 hPa 0,0 l/m 0,0 km/h (0 Bft) SO 140 60 min 0,000 mm 0,0 UV-I 223 W/m 10,0 C 24,9 C 0,0 km/h (0 Bft) 0,00 %
14.06.2015 21:00 20,1 C 57 % 1004,1 hPa 0,0 l/m 0,0 km/h (0 Bft) SO 140 0 min 0,000 mm 0,0 UV-I 1 W/m 11,3 C 20,1 C 0,0 km/h (0 Bft) 0,00 %
14.06.2015 22:00 18,5 C 77 % 1005,0 hPa 0,0 l/m 0,0 km/h (0 Bft) SO 140 0 min 0,000 mm 0,0 UV-I 0 W/m 14,4 C 18,5 C 0,0 km/h (0 Bft) 0,00 %
14.06.2015 23:00 16,6 C 81 % 1005,3 hPa 0,0 l/m 0,0 km/h (0 Bft) SO 140 0 min 0,000 mm 0,0 UV-I 0 W/m 13,3 C 16,6 C 0,0 km/h (0 Bft) 0,00 %
_ Min-Zeit 05:00 18:00 18:00 - 00:00 - - - - - - 19:00 05:00 00:00 00:00
Minimum _ 15,4 C 34 % 1002,8 hPa - 0,0 km/h (0 Bft) - - - - - - 9,0 C 15,4 C 0,0 km/h (0 Bft) 0,00 %
_ Max-Zeit 15:00 05:00 02:00 00:00 11:00 - - 06:00 00:00 11:00 18:00 10:00 15:00 11:00 00:00
Maximum _ 28,1 C 96 % 1010,2 hPa 0,0 l/m 4,3 km/h
O (1 Bft)
- - 60 min 0,000 mm 4,0 UV-I 810 W/m 16,4 C 28,1 C 7,9 km/h
O (2 Bft)
0,00 %
Durchschnitt _ 22,1 C 64 % 1006,7 hPa #0,0 l/m 0,4 km/h (0 Bft) O-SO - #14:00 h #0,000 mm 2,4 UV-I 476 W/m 14,0 C 22,1 C 1,2 km/h (1 Bft) 0,00 %